AirNav   Bose ProFlight Series 2 Headset
 
 631 users online  

NH11 Swain Hill Heliport
Warren, New Hampshire, USA

GOING TO WARREN?


FAA INFORMATION EFFECTIVE 02 JANUARY 2020

Location

FAA Identifier: NH11
Lat/Long: 43-57-39.6000N 071-53-19.8000W
43-57.660000N 071-53.330000W
43.9610000,-71.8888333
(estimated)
Elevation: 1110 ft. / 338 m
From city: 2 miles N of WARREN, NH
Time zone: UTC -5 (UTC -4 during Daylight Saving Time)
Zip code: 03279

Heliport Operations

Heliport use: Private use. Permission required prior to landing
Activation date: 09/2016
Control tower: no
ARTCC: BOSTON CENTER
FSS: BANGOR FLIGHT SERVICE STATION
Attendance: 
Segmented circle: no

Heliport Communications

WX AWOS-3 at 1P1 (12 nm SE): 118.45 (603-536-1698)

Nearby radio navigation aids

VOR radial/distance  VOR name  Freq  Var
LEBr055/22.1LEBANON VOR/DME113.7015W
MPVr123/25.3MONTPELIER VOR/DME110.8016W

 
NDB name  Hdg/Dist  Freq  Var  ID
HANOVER054/19.927615WLAH .-.. .- ....
MAHN217/25.638617WGMA --. -- .-

Heliport Services

Runway Information

Helipad H1

Dimensions: 75 x 75 ft. / 23 x 23 m
Surface: concrete
Latitude: 43-57.660000N
Longitude: 071-53.330000W
Elevation: 1110.0 ft.
Traffic pattern: leftleft

Heliport Ownership and Management from official FAA records

Ownership: Privately-owned
Owner: VICTORIA SAUCIER
220 SWAIN HILL ROAD
WARREN, NH 03279
Phone 781-588-8555
Manager: STACEY BERGER
220 SWAIN HILL ROAD
WARREN, NH 03279
Phone 781-547-1023

Additional Remarks

FOR CD CTC BOSTON ARTCC AT 603-879-6859.

Instrument Procedures

There are no published instrument procedures at NH11.

Some nearby airports with instrument procedures:

5B9 - Dean Memorial Airport (9 nm NW)
KLEB - Lebanon Municipal Airport (27 nm SW)
KHIE - Mount Washington Regional Airport (29 nm NE)
KLCI - Laconia Municipal Airport (31 nm SE)
KMPV - Edward F Knapp State Airport (32 nm NW)
 
Loc | Ops | Rwys | IFR | FBO | Links
Com | Nav | Svcs | Stats | Notes
Aerial photo
No photo
 
Airport distance calculator
Flying to Swain Hill Heliport? Find the distance to fly.

From to NH11

Sunrise and sunset
Times for 26-Jan-2020
 Local
(UTC-5)
 Zulu
(UTC)
Morning civil twilight06:4111:41
Sunrise07:1212:12
Sunset16:4821:48
Evening civil twilight17:1922:19

Current date and time
Zulu (UTC)  26-Jan-2020 06:41:40
Local (UTC-5)  26-Jan-2020 01:41:40
 
METAR
K1P1 
12nm SE 
260615Z AUTO 00000KT 3SM -DZ SCT006 BKN012 OVC017 02/02 A2971 RMK AO2 T00210018
TAF
KLEB 
27nm SW 
260540Z 2606/2706 VRB03KT P6SM BKN015 OVC050 FM261200 25006KT P6SM BKN050
KHIE 
28nm NE 
260549Z 2606/2706 VRB05KT 3SM -SNRA SCT015 OVC035 WS020/13040KT FM260900 VRB04KT 6SM -SHRA BR BKN015 OVC025 FM261700 26005KT 6SM -SHSN OVC025
KMPV 
33nm NW 
260524Z 2606/2706 VRB03KT 5SM -SNRA BR OVC010 WS020/14040KT FM260800 00000KT 3SM BR VCSH OVC010 FM261600 24005KT P6SM VCSH OVC035 FM262300 23007KT 4SM -SHSN BKN025
NOTAMs
Click for the latest NOTAMs
NOTAMs are issued by the DoD/FAA and will open in a separate window not controlled by AirNav.

 

 
 

Would you like to see your business listed on this page?

 If your business provides an interesting product or service to pilots, flight crews, aircraft, or users of the Swain Hill Heliport, you should consider listing it here.  To start the listing process, click on the button below
 
Add a business
 

Other Pages about Swain Hill Heliport

Update a link
 
Copyright © AirNav, LLC. All rights reserved. Privacy Policy  Contact